KHKS/HKS METAR and TAF weather

Enter ICAO airport designator
Station Type Date Time Source
KHKS METAR 2020/07/06 00:53 UTC NOAA

KHKS 060053Z 11004KT 10SM CLR 24/21 A2987 RMK AO2 RAE16 SLP106 P0001 T02440211


Station Type Date Time Source
KHKS Decoded METAR 2020/07/06 00:53 UTC NOAA

HAWKINS FIELD, MS, United States (KHKS) 32-20N 090-13W 108M
Jul 05, 2020 - 08:53 PM EDT / 2020.07.06 0053 UTC
Wind: from the ESE (110 degrees) at 5 MPH (4 KT):0
Visibility: 10 mile(s):0
Sky conditions: clear
Precipitation last hour: 0.01 inches
Temperature: 75.9 F (24.4 C)
Dew Point: 70.0 F (21.1 C)
Relative Humidity: 81%
Pressure (altimeter): 29.87 in. Hg (1011 hPa)
ob: KHKS 060053Z 11004KT 10SM CLR 24/21 A2987 RMK AO2 RAE16 SLP106 P0001 T02440211
cycle: 1

Station Type Date Time Source
KHKS TAF 2020/07/05 23:06 UTC NOAA

TAF
AMD KHKS 052304Z 0523/0618 13006KT P6SM BKN040
TEMPO 0523/0524 1SM +RA
FM060200 09003KT P6SM BKN120
FM061200 14003KT P6SM OVC015
FM061600 16004KT P6SM OVC025
FM061700 18005KT P6SM OVC035

Example: see airport list